Overview Statistics Trail Chart Weather Telemetry Raw packets
 

This is the latest recevied weather packets stored in our database for station/object N7WSS. If no packets are shown the sender has not sent any weather packets the latest 10 day(s).

<< 14 15 16 17 18 19 20 >>
Time Temp. Humidity Pressure Rain* Wind** Luminosity Snow
1788534753 28.33° C 60% 1015.4 hPa 0 mm - - -
1788534450 28.33° C 60% 1015.3 hPa 0 mm - - -
1788534145 27.78° C 62% 1015.3 hPa 0 mm - - -
1788533843 27.22° C 62% 1015.3 hPa 0 mm - - -
1788533539 27.22° C 64% 1015.4 hPa 0 mm - - -
1788533234 27.78° C 64% 1015.3 hPa 0 mm - - -
1788532930 26.67° C 67% 1015.3 hPa 0 mm - - -
1788532625 26.67° C 65% 1015.3 hPa 0 mm - - -
1788532322 26.67° C 65% 1015.3 hPa 0 mm - - -
1788532018 26.67° C 64% 1015.4 hPa 0 mm - - -
1788531714 26.67° C 65% 1015.2 hPa 0 mm - - -
1788531413 26.11° C 66% 1015.1 hPa 0 mm - - -
1788531109 25° C 68% 1015.2 hPa 0 mm - - -
1788530804 25° C 71% 1015 hPa 0 mm - - -
1788530499 25.56° C 70% 1015 hPa 0 mm - - -
1788530198 24.44° C 70% 1015 hPa 0 mm - - -
1788529894 23.89° C 74% 1014.8 hPa 0 mm - - -
1788529590 23.89° C 75% 1014.8 hPa 0 mm - - -
1788529289 23.33° C 76% 1014.8 hPa 0 mm - - -
1788528984 23.33° C 77% 1014.8 hPa 0 mm - - -
1788528679 22.22° C 81% 1014.8 hPa 0 mm - - -
1788528374 22.22° C 81% 1014.5 hPa 0 mm - - -
1788528069 21.67° C 81% 1014.5 hPa 0 mm - - -
1788527768 21.67° C 82% 1014.4 hPa 0 mm - - -
1788527464 21.67° C 82% 1014.3 hPa 0 mm - - -

* Rain latest hour (hover to see other rain measurements)
** Current wind speed in m/s (hover to see current wind gust speed)